sensor_id;sensor_type;location;lat;lon;timestamp;P1;durP1;ratioP1;P2;durP2;ratioP2
64885;SDS011;51514;52.206;5.114;2024-03-08T00:00:45;49.40;;;27.10;;
64885;SDS011;51514;52.206;5.114;2024-03-08T00:03:11;48.42;;;27.85;;
64885;SDS011;51514;52.206;5.114;2024-03-08T00:05:36;49.83;;;27.33;;
64885;SDS011;51514;52.206;5.114;2024-03-08T00:08:05;45.05;;;27.48;;
64885;SDS011;51514;52.206;5.114;2024-03-08T00:10:34;48.40;;;29.42;;
64885;SDS011;51514;52.206;5.114;2024-03-08T00:12:59;48.28;;;28.08;;
64885;SDS011;51514;52.206;5.114;2024-03-08T00:15:25;49.50;;;27.02;;
64885;SDS011;51514;52.206;5.114;2024-03-08T00:17:50;45.80;;;29.27;;
64885;SDS011;51514;52.206;5.114;2024-03-08T00:20:16;50.20;;;29.35;;
64885;SDS011;51514;52.206;5.114;2024-03-08T00:22:42;45.20;;;26.98;;
64885;SDS011;51514;52.206;5.114;2024-03-08T00:25:08;42.65;;;25.95;;
64885;SDS011;51514;52.206;5.114;2024-03-08T00:27:34;52.17;;;27.77;;
64885;SDS011;51514;52.206;5.114;2024-03-08T00:30:00;51.70;;;27.90;;
64885;SDS011;51514;52.206;5.114;2024-03-08T00:32:26;46.90;;;29.00;;
64885;SDS011;51514;52.206;5.114;2024-03-08T00:34:52;45.88;;;28.60;;
64885;SDS011;51514;52.206;5.114;2024-03-08T00:37:19;47.92;;;27.77;;
64885;SDS011;51514;52.206;5.114;2024-03-08T00:39:47;46.92;;;28.27;;
64885;SDS011;51514;52.206;5.114;2024-03-08T00:42:19;47.83;;;29.35;;
64885;SDS011;51514;52.206;5.114;2024-03-08T00:44:45;48.65;;;28.75;;
64885;SDS011;51514;52.206;5.114;2024-03-08T00:47:11;44.90;;;27.45;;
64885;SDS011;51514;52.206;5.114;2024-03-08T00:49:37;48.38;;;27.25;;
64885;SDS011;51514;52.206;5.114;2024-03-08T00:52:03;50.42;;;28.27;;
64885;SDS011;51514;52.206;5.114;2024-03-08T00:54:35;47.08;;;29.73;;
64885;SDS011;51514;52.206;5.114;2024-03-08T00:57:03;53.28;;;28.27;;
64885;SDS011;51514;52.206;5.114;2024-03-08T00:59:29;49.28;;;29.95;;
64885;SDS011;51514;52.206;5.114;2024-03-08T01:01:57;50.38;;;28.25;;
64885;SDS011;51514;52.206;5.114;2024-03-08T01:04:24;51.53;;;28.35;;
64885;SDS011;51514;52.206;5.114;2024-03-08T01:06:50;46.97;;;28.05;;
64885;SDS011;51514;52.206;5.114;2024-03-08T01:09:16;52.78;;;28.40;;
64885;SDS011;51514;52.206;5.114;2024-03-08T01:11:42;46.75;;;27.33;;
64885;SDS011;51514;52.206;5.114;2024-03-08T01:14:08;47.65;;;27.73;;
64885;SDS011;51514;52.206;5.114;2024-03-08T01:16:33;48.28;;;27.70;;
64885;SDS011;51514;52.206;5.114;2024-03-08T01:18:58;47.10;;;26.83;;
64885;SDS011;51514;52.206;5.114;2024-03-08T01:21:24;49.08;;;29.15;;
64885;SDS011;51514;52.206;5.114;2024-03-08T01:23:49;43.13;;;27.55;;
64885;SDS011;51514;52.206;5.114;2024-03-08T01:26:15;46.70;;;29.15;;
64885;SDS011;51514;52.206;5.114;2024-03-08T01:28:40;45.45;;;27.55;;
64885;SDS011;51514;52.206;5.114;2024-03-08T01:31:05;49.13;;;28.73;;
64885;SDS011;51514;52.206;5.114;2024-03-08T01:33:31;47.08;;;27.35;;
64885;SDS011;51514;52.206;5.114;2024-03-08T01:35:56;47.03;;;28.52;;
64885;SDS011;51514;52.206;5.114;2024-03-08T01:38:22;47.72;;;28.83;;
64885;SDS011;51514;52.206;5.114;2024-03-08T01:40:48;45.20;;;28.95;;
64885;SDS011;51514;52.206;5.114;2024-03-08T01:45:41;45.78;;;27.20;;
64885;SDS011;51514;52.206;5.114;2024-03-08T01:48:06;46.55;;;28.67;;
64885;SDS011;51514;52.206;5.114;2024-03-08T01:50:32;53.13;;;28.58;;
64885;SDS011;51514;52.206;5.114;2024-03-08T01:52:57;49.67;;;28.00;;
64885;SDS011;51514;52.206;5.114;2024-03-08T01:55:25;47.88;;;28.88;;
64885;SDS011;51514;52.206;5.114;2024-03-08T01:57:50;45.15;;;28.48;;
64885;SDS011;51514;52.206;5.114;2024-03-08T02:00:16;49.13;;;30.42;;
64885;SDS011;51514;52.206;5.114;2024-03-08T02:02:44;47.22;;;28.13;;
64885;SDS011;51514;52.206;5.114;2024-03-08T02:05:11;44.35;;;27.08;;
64885;SDS011;51514;52.206;5.114;2024-03-08T02:07:40;47.47;;;29.63;;
64885;SDS011;51514;52.206;5.114;2024-03-08T02:10:08;48.90;;;27.70;;
64885;SDS011;51514;52.206;5.114;2024-03-08T02:12:34;43.85;;;27.98;;
64885;SDS011;51514;52.206;5.114;2024-03-08T02:15:00;45.53;;;27.95;;
64885;SDS011;51514;52.206;5.114;2024-03-08T02:17:25;48.08;;;26.02;;
64885;SDS011;51514;52.206;5.114;2024-03-08T02:19:50;48.88;;;29.88;;
64885;SDS011;51514;52.206;5.114;2024-03-08T02:22:16;47.20;;;27.80;;
64885;SDS011;51514;52.206;5.114;2024-03-08T02:24:42;45.08;;;26.30;;
64885;SDS011;51514;52.206;5.114;2024-03-08T02:27:07;45.28;;;28.75;;
64885;SDS011;51514;52.206;5.114;2024-03-08T02:29:32;44.35;;;28.38;;
64885;SDS011;51514;52.206;5.114;2024-03-08T02:31:59;43.22;;;26.50;;
64885;SDS011;51514;52.206;5.114;2024-03-08T02:34:24;45.45;;;27.88;;
64885;SDS011;51514;52.206;5.114;2024-03-08T02:36:50;43.42;;;28.27;;
64885;SDS011;51514;52.206;5.114;2024-03-08T02:39:16;43.80;;;29.27;;
64885;SDS011;51514;52.206;5.114;2024-03-08T02:41:42;46.20;;;28.15;;
64885;SDS011;51514;52.206;5.114;2024-03-08T02:44:07;44.40;;;27.92;;
64885;SDS011;51514;52.206;5.114;2024-03-08T02:46:32;47.25;;;30.65;;
64885;SDS011;51514;52.206;5.114;2024-03-08T02:48:59;47.25;;;28.08;;
64885;SDS011;51514;52.206;5.114;2024-03-08T02:51:25;49.55;;;28.95;;
64885;SDS011;51514;52.206;5.114;2024-03-08T02:53:51;46.50;;;27.30;;
64885;SDS011;51514;52.206;5.114;2024-03-08T02:56:16;47.83;;;26.48;;
64885;SDS011;51514;52.206;5.114;2024-03-08T02:58:42;46.58;;;27.98;;
64885;SDS011;51514;52.206;5.114;2024-03-08T03:01:08;51.30;;;31.17;;
64885;SDS011;51514;52.206;5.114;2024-03-08T03:03:35;48.67;;;30.70;;
64885;SDS011;51514;52.206;5.114;2024-03-08T03:06:01;47.90;;;28.92;;
64885;SDS011;51514;52.206;5.114;2024-03-08T03:08:26;49.13;;;30.08;;
64885;SDS011;51514;52.206;5.114;2024-03-08T03:10:51;48.83;;;28.58;;
64885;SDS011;51514;52.206;5.114;2024-03-08T03:13:17;46.30;;;28.98;;
64885;SDS011;51514;52.206;5.114;2024-03-08T03:15:45;51.42;;;31.02;;
64885;SDS011;51514;52.206;5.114;2024-03-08T03:18:11;50.17;;;30.80;;
64885;SDS011;51514;52.206;5.114;2024-03-08T03:20:36;50.35;;;31.40;;
64885;SDS011;51514;52.206;5.114;2024-03-08T03:23:10;49.42;;;30.60;;
64885;SDS011;51514;52.206;5.114;2024-03-08T03:25:39;45.33;;;28.85;;
64885;SDS011;51514;52.206;5.114;2024-03-08T03:28:06;46.60;;;28.90;;
64885;SDS011;51514;52.206;5.114;2024-03-08T03:30:32;48.08;;;29.27;;
64885;SDS011;51514;52.206;5.114;2024-03-08T03:32:58;47.47;;;29.35;;
64885;SDS011;51514;52.206;5.114;2024-03-08T03:35:30;45.78;;;30.00;;
64885;SDS011;51514;52.206;5.114;2024-03-08T03:37:55;52.80;;;31.00;;
64885;SDS011;51514;52.206;5.114;2024-03-08T03:40:31;60.22;;;31.58;;
64885;SDS011;51514;52.206;5.114;2024-03-08T03:43:01;48.60;;;30.02;;
64885;SDS011;51514;52.206;5.114;2024-03-08T03:45:30;47.63;;;30.00;;
64885;SDS011;51514;52.206;5.114;2024-03-08T03:47:59;53.22;;;32.03;;
64885;SDS011;51514;52.206;5.114;2024-03-08T03:50:27;50.70;;;30.65;;
64885;SDS011;51514;52.206;5.114;2024-03-08T03:52:52;51.80;;;30.40;;
64885;SDS011;51514;52.206;5.114;2024-03-08T03:55:18;47.67;;;30.58;;
64885;SDS011;51514;52.206;5.114;2024-03-08T03:57:44;48.63;;;31.10;;
64885;SDS011;51514;52.206;5.114;2024-03-08T04:00:11;48.33;;;30.88;;
64885;SDS011;51514;52.206;5.114;2024-03-08T04:02:37;51.33;;;29.23;;
64885;SDS011;51514;52.206;5.114;2024-03-08T04:05:04;45.42;;;29.52;;
64885;SDS011;51514;52.206;5.114;2024-03-08T04:07:32;48.13;;;30.05;;
64885;SDS011;51514;52.206;5.114;2024-03-08T04:09:59;47.67;;;29.92;;
64885;SDS011;51514;52.206;5.114;2024-03-08T04:12:25;51.25;;;29.98;;
64885;SDS011;51514;52.206;5.114;2024-03-08T04:14:51;46.55;;;29.27;;
64885;SDS011;51514;52.206;5.114;2024-03-08T04:17:18;44.95;;;31.05;;
64885;SDS011;51514;52.206;5.114;2024-03-08T04:19:43;49.15;;;29.35;;
64885;SDS011;51514;52.206;5.114;2024-03-08T04:22:09;53.03;;;29.45;;
64885;SDS011;51514;52.206;5.114;2024-03-08T04:24:34;48.53;;;30.80;;
64885;SDS011;51514;52.206;5.114;2024-03-08T04:27:00;50.15;;;29.27;;
64885;SDS011;51514;52.206;5.114;2024-03-08T04:29:25;49.17;;;31.35;;
64885;SDS011;51514;52.206;5.114;2024-03-08T04:31:52;50.05;;;32.25;;
64885;SDS011;51514;52.206;5.114;2024-03-08T04:34:19;49.65;;;29.33;;
64885;SDS011;51514;52.206;5.114;2024-03-08T04:36:46;47.53;;;30.05;;
64885;SDS011;51514;52.206;5.114;2024-03-08T04:39:11;48.03;;;30.45;;
64885;SDS011;51514;52.206;5.114;2024-03-08T04:41:38;44.78;;;29.73;;
64885;SDS011;51514;52.206;5.114;2024-03-08T04:44:04;47.47;;;29.10;;
64885;SDS011;51514;52.206;5.114;2024-03-08T04:46:30;53.13;;;30.95;;
64885;SDS011;51514;52.206;5.114;2024-03-08T04:48:55;52.00;;;31.92;;
64885;SDS011;51514;52.206;5.114;2024-03-08T04:51:20;48.45;;;31.38;;
64885;SDS011;51514;52.206;5.114;2024-03-08T04:53:46;47.55;;;29.05;;
64885;SDS011;51514;52.206;5.114;2024-03-08T04:56:11;47.75;;;29.85;;
64885;SDS011;51514;52.206;5.114;2024-03-08T04:58:36;47.30;;;30.02;;
64885;SDS011;51514;52.206;5.114;2024-03-08T05:01:02;45.80;;;30.45;;
64885;SDS011;51514;52.206;5.114;2024-03-08T05:03:27;49.63;;;32.17;;
64885;SDS011;51514;52.206;5.114;2024-03-08T05:05:53;48.65;;;31.48;;
64885;SDS011;51514;52.206;5.114;2024-03-08T05:08:18;46.38;;;29.23;;
64885;SDS011;51514;52.206;5.114;2024-03-08T05:10:44;51.25;;;31.33;;
64885;SDS011;51514;52.206;5.114;2024-03-08T05:13:10;46.47;;;29.58;;
64885;SDS011;51514;52.206;5.114;2024-03-08T05:15:35;54.38;;;30.85;;
64885;SDS011;51514;52.206;5.114;2024-03-08T05:18:01;49.25;;;30.90;;
64885;SDS011;51514;52.206;5.114;2024-03-08T05:20:27;48.45;;;29.73;;
64885;SDS011;51514;52.206;5.114;2024-03-08T05:22:52;44.97;;;29.50;;
64885;SDS011;51514;52.206;5.114;2024-03-08T05:25:17;47.78;;;30.08;;
64885;SDS011;51514;52.206;5.114;2024-03-08T05:27:43;49.00;;;30.52;;
64885;SDS011;51514;52.206;5.114;2024-03-08T05:30:08;49.92;;;28.27;;
64885;SDS011;51514;52.206;5.114;2024-03-08T05:32:39;45.55;;;28.92;;
64885;SDS011;51514;52.206;5.114;2024-03-08T05:35:11;43.17;;;30.05;;
64885;SDS011;51514;52.206;5.114;2024-03-08T05:37:37;50.65;;;30.50;;
64885;SDS011;51514;52.206;5.114;2024-03-08T05:40:05;42.97;;;27.90;;
64885;SDS011;51514;52.206;5.114;2024-03-08T05:42:34;44.50;;;29.08;;
64885;SDS011;51514;52.206;5.114;2024-03-08T05:45:00;44.30;;;30.63;;
64885;SDS011;51514;52.206;5.114;2024-03-08T05:47:25;45.25;;;30.08;;
64885;SDS011;51514;52.206;5.114;2024-03-08T05:49:51;46.90;;;30.73;;
64885;SDS011;51514;52.206;5.114;2024-03-08T05:52:18;42.72;;;28.13;;
64885;SDS011;51514;52.206;5.114;2024-03-08T05:54:44;46.03;;;29.58;;
64885;SDS011;51514;52.206;5.114;2024-03-08T05:57:10;44.63;;;29.60;;
64885;SDS011;51514;52.206;5.114;2024-03-08T05:59:36;49.78;;;30.60;;
64885;SDS011;51514;52.206;5.114;2024-03-08T06:02:01;44.38;;;30.10;;
64885;SDS011;51514;52.206;5.114;2024-03-08T06:04:27;42.95;;;28.80;;
64885;SDS011;51514;52.206;5.114;2024-03-08T06:06:52;43.08;;;28.95;;
64885;SDS011;51514;52.206;5.114;2024-03-08T06:09:20;45.55;;;29.17;;
64885;SDS011;51514;52.206;5.114;2024-03-08T06:11:48;42.95;;;30.30;;
64885;SDS011;51514;52.206;5.114;2024-03-08T06:14:13;43.15;;;27.40;;
64885;SDS011;51514;52.206;5.114;2024-03-08T06:16:41;49.28;;;29.63;;
64885;SDS011;51514;52.206;5.114;2024-03-08T06:19:06;45.38;;;28.80;;
64885;SDS011;51514;52.206;5.114;2024-03-08T06:21:32;52.63;;;30.10;;
64885;SDS011;51514;52.206;5.114;2024-03-08T06:23:58;47.80;;;31.33;;
64885;SDS011;51514;52.206;5.114;2024-03-08T06:26:23;44.50;;;28.85;;
64885;SDS011;51514;52.206;5.114;2024-03-08T06:28:50;43.67;;;29.42;;
64885;SDS011;51514;52.206;5.114;2024-03-08T06:31:16;46.45;;;29.27;;
64885;SDS011;51514;52.206;5.114;2024-03-08T06:33:41;44.38;;;30.58;;
64885;SDS011;51514;52.206;5.114;2024-03-08T06:36:07;47.05;;;30.48;;
64885;SDS011;51514;52.206;5.114;2024-03-08T06:38:34;49.30;;;29.88;;
64885;SDS011;51514;52.206;5.114;2024-03-08T06:40:59;45.58;;;29.13;;
64885;SDS011;51514;52.206;5.114;2024-03-08T06:43:28;45.90;;;29.27;;
64885;SDS011;51514;52.206;5.114;2024-03-08T06:45:59;45.00;;;29.38;;
64885;SDS011;51514;52.206;5.114;2024-03-08T06:48:24;47.10;;;30.50;;
64885;SDS011;51514;52.206;5.114;2024-03-08T06:50:50;44.38;;;29.85;;
64885;SDS011;51514;52.206;5.114;2024-03-08T06:53:15;48.00;;;29.60;;
64885;SDS011;51514;52.206;5.114;2024-03-08T06:55:43;43.15;;;29.40;;
64885;SDS011;51514;52.206;5.114;2024-03-08T06:58:09;44.53;;;26.65;;
64885;SDS011;51514;52.206;5.114;2024-03-08T07:00:35;44.97;;;29.50;;
64885;SDS011;51514;52.206;5.114;2024-03-08T07:03:01;48.17;;;28.90;;
64885;SDS011;51514;52.206;5.114;2024-03-08T07:05:27;38.45;;;29.17;;
64885;SDS011;51514;52.206;5.114;2024-03-08T07:07:53;45.83;;;27.73;;
64885;SDS011;51514;52.206;5.114;2024-03-08T07:10:19;43.97;;;28.13;;
64885;SDS011;51514;52.206;5.114;2024-03-08T07:12:45;43.55;;;28.42;;
64885;SDS011;51514;52.206;5.114;2024-03-08T07:15:11;42.03;;;25.77;;
64885;SDS011;51514;52.206;5.114;2024-03-08T07:17:40;44.13;;;29.35;;
64885;SDS011;51514;52.206;5.114;2024-03-08T07:20:07;43.97;;;28.20;;
64885;SDS011;51514;52.206;5.114;2024-03-08T07:25:03;41.42;;;28.98;;
64885;SDS011;51514;52.206;5.114;2024-03-08T07:29:59;40.58;;;28.10;;
64885;SDS011;51514;52.206;5.114;2024-03-08T07:32:25;40.00;;;27.70;;
64885;SDS011;51514;52.206;5.114;2024-03-08T07:34:53;39.47;;;27.50;;
64885;SDS011;51514;52.206;5.114;2024-03-08T07:37:20;40.42;;;26.83;;
64885;SDS011;51514;52.206;5.114;2024-03-08T07:39:45;38.60;;;26.38;;
64885;SDS011;51514;52.206;5.114;2024-03-08T07:42:11;45.35;;;23.65;;
64885;SDS011;51514;52.206;5.114;2024-03-08T07:44:37;39.90;;;26.13;;
64885;SDS011;51514;52.206;5.114;2024-03-08T07:47:02;33.55;;;23.85;;
64885;SDS011;51514;52.206;5.114;2024-03-08T07:49:28;39.60;;;26.88;;
64885;SDS011;51514;52.206;5.114;2024-03-08T07:51:54;40.25;;;26.05;;
64885;SDS011;51514;52.206;5.114;2024-03-08T07:54:20;36.65;;;26.80;;
64885;SDS011;51514;52.206;5.114;2024-03-08T07:56:45;39.13;;;25.15;;
64885;SDS011;51514;52.206;5.114;2024-03-08T07:59:11;35.80;;;21.00;;
64885;SDS011;51514;52.206;5.114;2024-03-08T08:01:37;37.85;;;25.90;;
64885;SDS011;51514;52.206;5.114;2024-03-08T08:04:03;39.65;;;27.85;;
64885;SDS011;51514;52.206;5.114;2024-03-08T08:06:28;42.17;;;25.90;;
64885;SDS011;51514;52.206;5.114;2024-03-08T08:08:56;34.75;;;22.13;;
64885;SDS011;51514;52.206;5.114;2024-03-08T08:11:22;40.42;;;27.08;;
64885;SDS011;51514;52.206;5.114;2024-03-08T08:13:47;38.10;;;25.33;;
64885;SDS011;51514;52.206;5.114;2024-03-08T08:16:13;37.55;;;26.67;;
64885;SDS011;51514;52.206;5.114;2024-03-08T08:18:38;34.45;;;23.70;;
64885;SDS011;51514;52.206;5.114;2024-03-08T08:21:04;37.05;;;25.88;;
64885;SDS011;51514;52.206;5.114;2024-03-08T08:23:31;37.28;;;26.17;;
64885;SDS011;51514;52.206;5.114;2024-03-08T08:25:58;35.15;;;24.75;;
64885;SDS011;51514;52.206;5.114;2024-03-08T08:28:24;35.47;;;24.05;;
64885;SDS011;51514;52.206;5.114;2024-03-08T08:30:49;36.08;;;25.75;;
64885;SDS011;51514;52.206;5.114;2024-03-08T08:33:15;36.00;;;25.77;;
64885;SDS011;51514;52.206;5.114;2024-03-08T08:35:40;34.42;;;22.50;;
64885;SDS011;51514;52.206;5.114;2024-03-08T08:38:06;38.40;;;26.30;;
64885;SDS011;51514;52.206;5.114;2024-03-08T08:40:32;36.40;;;25.35;;
64885;SDS011;51514;52.206;5.114;2024-03-08T08:43:01;38.65;;;24.92;;
64885;SDS011;51514;52.206;5.114;2024-03-08T08:45:29;36.75;;;25.45;;
64885;SDS011;51514;52.206;5.114;2024-03-08T08:47:55;36.15;;;25.10;;
64885;SDS011;51514;52.206;5.114;2024-03-08T08:50:21;34.40;;;22.98;;
64885;SDS011;51514;52.206;5.114;2024-03-08T08:52:49;33.15;;;23.65;;
64885;SDS011;51514;52.206;5.114;2024-03-08T08:55:15;38.00;;;24.42;;
64885;SDS011;51514;52.206;5.114;2024-03-08T08:57:41;36.67;;;25.27;;
64885;SDS011;51514;52.206;5.114;2024-03-08T09:00:06;32.28;;;21.08;;
64885;SDS011;51514;52.206;5.114;2024-03-08T09:02:34;36.60;;;22.30;;
64885;SDS011;51514;52.206;5.114;2024-03-08T09:05:00;35.63;;;24.73;;
64885;SDS011;51514;52.206;5.114;2024-03-08T09:07:28;30.83;;;23.75;;
64885;SDS011;51514;52.206;5.114;2024-03-08T09:09:54;33.05;;;20.77;;
64885;SDS011;51514;52.206;5.114;2024-03-08T09:12:23;35.50;;;24.75;;
64885;SDS011;51514;52.206;5.114;2024-03-08T09:14:49;31.83;;;22.00;;
64885;SDS011;51514;52.206;5.114;2024-03-08T09:17:14;32.95;;;24.27;;
64885;SDS011;51514;52.206;5.114;2024-03-08T09:19:45;32.33;;;23.02;;
64885;SDS011;51514;52.206;5.114;2024-03-08T09:22:10;31.58;;;23.73;;
64885;SDS011;51514;52.206;5.114;2024-03-08T09:24:36;33.67;;;23.60;;
64885;SDS011;51514;52.206;5.114;2024-03-08T09:27:01;31.55;;;23.25;;
64885;SDS011;51514;52.206;5.114;2024-03-08T09:29:26;33.40;;;23.08;;
64885;SDS011;51514;52.206;5.114;2024-03-08T09:31:52;30.40;;;22.27;;
64885;SDS011;51514;52.206;5.114;2024-03-08T09:34:17;32.83;;;25.25;;
64885;SDS011;51514;52.206;5.114;2024-03-08T09:36:43;37.78;;;25.48;;
64885;SDS011;51514;52.206;5.114;2024-03-08T09:39:09;34.30;;;24.52;;
64885;SDS011;51514;52.206;5.114;2024-03-08T09:41:35;31.48;;;23.52;;
64885;SDS011;51514;52.206;5.114;2024-03-08T09:44:00;32.42;;;23.42;;
64885;SDS011;51514;52.206;5.114;2024-03-08T09:46:26;35.15;;;22.95;;
64885;SDS011;51514;52.206;5.114;2024-03-08T09:48:55;34.10;;;23.00;;
64885;SDS011;51514;52.206;5.114;2024-03-08T09:51:27;32.55;;;21.83;;
64885;SDS011;51514;52.206;5.114;2024-03-08T09:53:54;32.00;;;22.83;;
64885;SDS011;51514;52.206;5.114;2024-03-08T09:56:20;32.47;;;22.75;;
64885;SDS011;51514;52.206;5.114;2024-03-08T09:58:48;30.42;;;20.63;;
64885;SDS011;51514;52.206;5.114;2024-03-08T10:01:40;30.15;;;20.48;;
64885;SDS011;51514;52.206;5.114;2024-03-08T10:04:08;31.02;;;22.02;;
64885;SDS011;51514;52.206;5.114;2024-03-08T10:09:01;33.08;;;21.30;;
64885;SDS011;51514;52.206;5.114;2024-03-08T10:11:26;30.33;;;22.00;;
64885;SDS011;51514;52.206;5.114;2024-03-08T10:13:55;28.38;;;20.75;;
64885;SDS011;51514;52.206;5.114;2024-03-08T10:16:20;30.10;;;21.80;;
64885;SDS011;51514;52.206;5.114;2024-03-08T10:18:46;27.38;;;21.25;;
64885;SDS011;51514;52.206;5.114;2024-03-08T10:21:11;31.30;;;22.95;;
64885;SDS011;51514;52.206;5.114;2024-03-08T10:23:38;30.20;;;19.27;;
64885;SDS011;51514;52.206;5.114;2024-03-08T10:26:14;28.30;;;21.55;;
64885;SDS011;51514;52.206;5.114;2024-03-08T10:28:44;27.83;;;20.13;;
64885;SDS011;51514;52.206;5.114;2024-03-08T10:31:12;28.20;;;22.33;;
64885;SDS011;51514;52.206;5.114;2024-03-08T10:33:40;29.85;;;21.92;;
64885;SDS011;51514;52.206;5.114;2024-03-08T10:36:06;29.05;;;23.05;;
64885;SDS011;51514;52.206;5.114;2024-03-08T10:38:33;30.27;;;22.75;;
64885;SDS011;51514;52.206;5.114;2024-03-08T10:41:01;26.40;;;20.88;;
64885;SDS011;51514;52.206;5.114;2024-03-08T10:43:31;27.77;;;20.73;;
64885;SDS011;51514;52.206;5.114;2024-03-08T10:49:08;28.83;;;20.92;;
64885;SDS011;51514;52.206;5.114;2024-03-08T10:51:42;26.63;;;20.17;;
64885;SDS011;51514;52.206;5.114;2024-03-08T10:54:08;29.10;;;21.98;;
64885;SDS011;51514;52.206;5.114;2024-03-08T10:56:35;24.65;;;20.27;;
64885;SDS011;51514;52.206;5.114;2024-03-08T10:59:01;26.98;;;20.60;;
64885;SDS011;51514;52.206;5.114;2024-03-08T11:01:29;28.13;;;21.42;;
64885;SDS011;51514;52.206;5.114;2024-03-08T11:03:54;26.25;;;21.25;;
64885;SDS011;51514;52.206;5.114;2024-03-08T11:09:02;25.58;;;20.25;;
64885;SDS011;51514;52.206;5.114;2024-03-08T11:11:31;24.77;;;18.77;;
64885;SDS011;51514;52.206;5.114;2024-03-08T11:13:59;25.30;;;19.15;;
64885;SDS011;51514;52.206;5.114;2024-03-08T11:18:59;23.70;;;19.83;;
64885;SDS011;51514;52.206;5.114;2024-03-08T11:21:29;22.35;;;16.90;;
64885;SDS011;51514;52.206;5.114;2024-03-08T11:24:13;30.08;;;19.70;;
64885;SDS011;51514;52.206;5.114;2024-03-08T11:26:39;24.80;;;18.65;;
64885;SDS011;51514;52.206;5.114;2024-03-08T11:31:52;26.50;;;20.30;;
64885;SDS011;51514;52.206;5.114;2024-03-08T11:34:28;26.25;;;19.77;;
64885;SDS011;51514;52.206;5.114;2024-03-08T11:36:55;26.52;;;18.63;;
64885;SDS011;51514;52.206;5.114;2024-03-08T11:39:21;28.27;;;20.13;;
64885;SDS011;51514;52.206;5.114;2024-03-08T11:41:49;25.00;;;17.67;;
64885;SDS011;51514;52.206;5.114;2024-03-08T11:44:14;24.23;;;20.38;;
64885;SDS011;51514;52.206;5.114;2024-03-08T11:46:41;27.17;;;19.25;;
64885;SDS011;51514;52.206;5.114;2024-03-08T11:49:11;27.15;;;18.17;;
64885;SDS011;51514;52.206;5.114;2024-03-08T11:51:37;27.42;;;19.60;;
64885;SDS011;51514;52.206;5.114;2024-03-08T11:54:03;24.05;;;17.05;;
64885;SDS011;51514;52.206;5.114;2024-03-08T11:56:28;25.90;;;18.80;;
64885;SDS011;51514;52.206;5.114;2024-03-08T11:58:55;26.77;;;20.15;;
64885;SDS011;51514;52.206;5.114;2024-03-08T12:01:22;27.85;;;20.58;;
64885;SDS011;51514;52.206;5.114;2024-03-08T12:03:57;27.70;;;20.42;;
64885;SDS011;51514;52.206;5.114;2024-03-08T12:06:26;27.27;;;17.38;;
64885;SDS011;51514;52.206;5.114;2024-03-08T12:09:01;27.75;;;18.25;;
64885;SDS011;51514;52.206;5.114;2024-03-08T12:11:27;25.42;;;18.90;;
64885;SDS011;51514;52.206;5.114;2024-03-08T12:13:53;25.02;;;19.25;;
64885;SDS011;51514;52.206;5.114;2024-03-08T12:16:19;23.98;;;17.10;;
64885;SDS011;51514;52.206;5.114;2024-03-08T12:18:46;24.15;;;17.55;;
64885;SDS011;51514;52.206;5.114;2024-03-08T12:21:13;24.02;;;17.02;;
64885;SDS011;51514;52.206;5.114;2024-03-08T12:23:42;26.58;;;15.73;;
64885;SDS011;51514;52.206;5.114;2024-03-08T12:26:16;24.85;;;17.90;;
64885;SDS011;51514;52.206;5.114;2024-03-08T12:28:43;24.25;;;16.33;;
64885;SDS011;51514;52.206;5.114;2024-03-08T12:31:11;22.10;;;15.05;;
64885;SDS011;51514;52.206;5.114;2024-03-08T12:33:46;23.13;;;16.67;;
64885;SDS011;51514;52.206;5.114;2024-03-08T12:36:16;24.52;;;16.83;;
64885;SDS011;51514;52.206;5.114;2024-03-08T12:38:44;24.00;;;18.85;;
64885;SDS011;51514;52.206;5.114;2024-03-08T12:41:16;25.13;;;16.98;;
64885;SDS011;51514;52.206;5.114;2024-03-08T12:43:43;24.55;;;15.93;;
64885;SDS011;51514;52.206;5.114;2024-03-08T12:46:22;26.65;;;17.23;;
64885;SDS011;51514;52.206;5.114;2024-03-08T12:48:51;23.42;;;16.92;;
64885;SDS011;51514;52.206;5.114;2024-03-08T12:51:18;25.98;;;15.25;;
64885;SDS011;51514;52.206;5.114;2024-03-08T12:53:45;26.58;;;16.85;;
64885;SDS011;51514;52.206;5.114;2024-03-08T12:56:30;22.10;;;14.85;;
64885;SDS011;51514;52.206;5.114;2024-03-08T12:58:57;25.38;;;16.13;;
64885;SDS011;51514;52.206;5.114;2024-03-08T13:01:23;21.08;;;14.85;;
64885;SDS011;51514;52.206;5.114;2024-03-08T13:03:48;21.63;;;12.43;;
64885;SDS011;51514;52.206;5.114;2024-03-08T13:06:17;23.57;;;16.07;;
64885;SDS011;51514;52.206;5.114;2024-03-08T13:08:46;24.70;;;15.77;;
64885;SDS011;51514;52.206;5.114;2024-03-08T13:11:13;21.55;;;15.50;;
64885;SDS011;51514;52.206;5.114;2024-03-08T13:13:39;18.33;;;12.63;;
64885;SDS011;51514;52.206;5.114;2024-03-08T13:16:05;25.17;;;14.93;;
64885;SDS011;51514;52.206;5.114;2024-03-08T13:18:33;21.13;;;15.32;;
64885;SDS011;51514;52.206;5.114;2024-03-08T13:21:02;17.30;;;11.75;;
64885;SDS011;51514;52.206;5.114;2024-03-08T13:23:31;22.58;;;14.65;;
64885;SDS011;51514;52.206;5.114;2024-03-08T13:25:57;22.00;;;16.02;;
64885;SDS011;51514;52.206;5.114;2024-03-08T13:28:22;25.77;;;17.30;;
64885;SDS011;51514;52.206;5.114;2024-03-08T13:30:52;30.38;;;14.10;;
64885;SDS011;51514;52.206;5.114;2024-03-08T13:33:18;23.02;;;17.10;;
64885;SDS011;51514;52.206;5.114;2024-03-08T13:35:45;24.25;;;16.52;;
64885;SDS011;51514;52.206;5.114;2024-03-08T13:38:11;23.83;;;15.18;;
64885;SDS011;51514;52.206;5.114;2024-03-08T13:40:38;27.65;;;16.65;;
64885;SDS011;51514;52.206;5.114;2024-03-08T13:43:05;23.70;;;17.92;;
64885;SDS011;51514;52.206;5.114;2024-03-08T13:45:32;27.48;;;17.85;;
64885;SDS011;51514;52.206;5.114;2024-03-08T13:48:03;21.65;;;16.27;;
64885;SDS011;51514;52.206;5.114;2024-03-08T13:50:29;24.30;;;15.90;;
64885;SDS011;51514;52.206;5.114;2024-03-08T13:52:55;22.88;;;16.30;;
64885;SDS011;51514;52.206;5.114;2024-03-08T13:55:21;21.83;;;13.63;;
64885;SDS011;51514;52.206;5.114;2024-03-08T13:57:47;22.27;;;15.00;;
64885;SDS011;51514;52.206;5.114;2024-03-08T14:00:13;26.60;;;16.15;;
64885;SDS011;51514;52.206;5.114;2024-03-08T14:02:39;25.00;;;18.67;;
64885;SDS011;51514;52.206;5.114;2024-03-08T14:05:06;26.15;;;18.42;;
64885;SDS011;51514;52.206;5.114;2024-03-08T14:07:34;25.77;;;17.77;;
64885;SDS011;51514;52.206;5.114;2024-03-08T14:09:59;23.48;;;17.50;;
64885;SDS011;51514;52.206;5.114;2024-03-08T14:12:25;23.70;;;16.08;;
64885;SDS011;51514;52.206;5.114;2024-03-08T14:14:51;22.25;;;12.02;;
64885;SDS011;51514;52.206;5.114;2024-03-08T14:17:19;23.73;;;16.48;;
64885;SDS011;51514;52.206;5.114;2024-03-08T14:19:45;22.20;;;16.25;;
64885;SDS011;51514;52.206;5.114;2024-03-08T14:22:10;23.92;;;17.65;;
64885;SDS011;51514;52.206;5.114;2024-03-08T14:24:39;24.73;;;17.80;;
64885;SDS011;51514;52.206;5.114;2024-03-08T14:27:07;24.27;;;17.08;;
64885;SDS011;51514;52.206;5.114;2024-03-08T14:29:34;25.48;;;16.48;;
64885;SDS011;51514;52.206;5.114;2024-03-08T14:32:00;20.73;;;12.05;;
64885;SDS011;51514;52.206;5.114;2024-03-08T14:34:26;24.75;;;18.48;;
64885;SDS011;51514;52.206;5.114;2024-03-08T14:36:53;24.60;;;17.85;;
64885;SDS011;51514;52.206;5.114;2024-03-08T14:39:18;21.48;;;14.00;;